createdAt,value
2018-12-15T00:01:42.541Z,78.80
2018-12-15T00:04:11.368Z,78.80
2018-12-15T00:06:40.569Z,78.50
2018-12-15T00:09:09.175Z,78.80
2018-12-15T00:11:38.017Z,79.00
2018-12-15T00:14:06.580Z,79.20
2018-12-15T00:16:35.637Z,79.30
2018-12-15T00:19:04.409Z,79.10
2018-12-15T00:21:33.249Z,79.30
2018-12-15T00:24:01.779Z,79.10
2018-12-15T00:26:30.296Z,79.40
2018-12-15T00:28:58.802Z,79.50
2018-12-15T00:31:27.406Z,79.40
2018-12-15T00:33:55.998Z,79.40
2018-12-15T00:36:24.670Z,79.30
2018-12-15T00:38:53.335Z,79.10
2018-12-15T00:41:22.161Z,79.40
2018-12-15T00:43:50.947Z,79.40
2018-12-15T00:46:19.431Z,79.30
2018-12-15T00:48:48.150Z,79.40
2018-12-15T00:51:16.637Z,79.20
2018-12-15T00:53:45.785Z,79.40
2018-12-15T00:56:14.811Z,79.50
2018-12-15T00:58:43.895Z,79.40
2018-12-15T01:01:12.547Z,80.00
2018-12-15T01:03:41.156Z,79.20
2018-12-15T01:06:10.210Z,79.00
2018-12-15T01:08:39.296Z,79.10
2018-12-15T01:11:07.908Z,78.90
2018-12-15T01:13:36.501Z,78.90
2018-12-15T01:16:05.207Z,78.90
2018-12-15T01:18:33.962Z,78.90
2018-12-15T01:21:03.226Z,78.80
2018-12-15T01:23:31.921Z,78.80
2018-12-15T01:26:00.498Z,78.90
2018-12-15T01:28:28.965Z,78.90
2018-12-15T01:30:57.457Z,78.80
2018-12-15T01:33:25.915Z,78.80
2018-12-15T01:35:54.411Z,78.80
2018-12-15T01:38:22.833Z,78.80
2018-12-15T01:40:51.730Z,78.80
2018-12-15T01:43:25.541Z,78.70
2018-12-15T01:45:54.402Z,78.80
2018-12-15T01:48:23.048Z,78.90
2018-12-15T01:50:51.557Z,78.90
2018-12-15T01:53:20.376Z,79.10
2018-12-15T01:55:48.879Z,79.70
2018-12-15T01:58:17.910Z,79.10
2018-12-15T02:00:46.414Z,79.00
2018-12-15T02:03:16.042Z,79.00
2018-12-15T02:05:44.889Z,79.00
2018-12-15T02:08:13.389Z,79.00
2018-12-15T02:10:43.538Z,78.90
2018-12-15T02:13:12.106Z,79.00
2018-12-15T02:15:40.777Z,80.00
2018-12-15T02:18:09.271Z,79.00
2018-12-15T02:20:37.786Z,79.30
2018-12-15T02:23:06.250Z,79.40
2018-12-15T02:25:35.020Z,79.40
2018-12-15T02:28:03.488Z,79.20
2018-12-15T02:30:31.991Z,79.30
2018-12-15T02:33:00.550Z,79.30
2018-12-15T02:35:29.125Z,79.10
2018-12-15T02:37:57.627Z,79.90
2018-12-15T02:40:26.454Z,79.20
2018-12-15T02:42:54.935Z,78.80
2018-12-15T02:45:23.442Z,79.20
2018-12-15T02:47:51.899Z,79.20
2018-12-15T02:50:20.398Z,79.10
2018-12-15T02:52:48.874Z,79.10
2018-12-15T02:55:17.381Z,79.00
2018-12-15T02:57:45.857Z,78.90
2018-12-15T03:00:14.467Z,78.90
2018-12-15T03:02:42.944Z,78.90
2018-12-15T03:05:11.453Z,78.90
2018-12-15T03:07:40.046Z,78.80
2018-12-15T03:10:08.859Z,78.80
2018-12-15T03:12:37.337Z,78.70
2018-12-15T03:15:06.219Z,78.70
2018-12-15T03:17:34.733Z,78.70
2018-12-15T03:20:04.157Z,78.70
2018-12-15T03:22:32.709Z,78.70
2018-12-15T03:25:01.338Z,78.80
2018-12-15T03:27:29.845Z,78.80
2018-12-15T03:29:58.310Z,78.80
2018-12-15T03:32:26.789Z,78.80
2018-12-15T03:34:55.238Z,78.80
2018-12-15T03:37:23.765Z,78.70
2018-12-15T03:39:52.247Z,78.70
2018-12-15T03:42:20.710Z,78.70
2018-12-15T03:44:49.223Z,78.80
2018-12-15T03:47:17.653Z,78.70
2018-12-15T03:49:47.072Z,78.80
2018-12-15T03:52:15.600Z,78.70
2018-12-15T03:54:47.250Z,78.60
2018-12-15T03:57:16.101Z,78.70
2018-12-15T03:59:45.209Z,78.70
2018-12-15T04:02:14.087Z,78.70
2018-12-15T04:04:43.361Z,78.60
2018-12-15T04:07:12.377Z,78.60
2018-12-15T04:09:41.501Z,78.80
2018-12-15T04:12:09.959Z,78.60
2018-12-15T04:14:42.500Z,78.60
2018-12-15T04:17:11.072Z,78.60
2018-12-15T04:19:39.533Z,78.60
2018-12-15T04:22:18.487Z,78.60
2018-12-15T04:24:47.046Z,78.60
2018-12-15T04:27:15.508Z,78.60
2018-12-15T04:29:43.990Z,78.60
2018-12-15T04:32:12.475Z,78.60
2018-12-15T04:34:41.385Z,78.70
2018-12-15T04:37:10.208Z,78.70
2018-12-15T04:39:38.880Z,78.70
2018-12-15T04:42:07.397Z,78.70
2018-12-15T04:44:35.927Z,78.70
2018-12-15T04:47:04.740Z,78.70
2018-12-15T04:49:33.235Z,78.70
2018-12-15T04:52:01.705Z,78.70
2018-12-15T04:54:30.207Z,78.70
2018-12-15T04:56:58.709Z,78.80
2018-12-15T04:59:27.197Z,79.50
2018-12-15T05:01:55.660Z,78.80
2018-12-15T05:04:24.153Z,78.80
2018-12-15T05:06:52.613Z,78.80
2018-12-15T05:09:21.096Z,78.70
2018-12-15T05:11:49.629Z,78.70
2018-12-15T05:14:18.098Z,78.90
2018-12-15T05:16:46.626Z,78.80
2018-12-15T05:19:15.112Z,78.70
2018-12-15T05:21:43.679Z,78.90
2018-12-15T05:24:12.149Z,78.90
2018-12-15T05:26:40.639Z,78.90
2018-12-15T05:29:09.142Z,78.80
2018-12-15T05:31:37.653Z,78.80
2018-12-15T05:34:06.294Z,78.80
2018-12-15T05:36:34.799Z,78.80
2018-12-15T05:39:04.168Z,78.90
2018-12-15T05:41:32.716Z,78.90
2018-12-15T05:44:01.182Z,78.80
2018-12-15T05:46:29.739Z,78.90
2018-12-15T05:48:58.202Z,78.90
2018-12-15T05:51:26.789Z,78.80
2018-12-15T05:53:55.263Z,78.90
2018-12-15T05:56:23.762Z,78.80
2018-12-15T05:58:52.234Z,78.80
2018-12-15T06:01:20.762Z,78.80
2018-12-15T06:03:49.211Z,78.80
2018-12-15T06:06:18.060Z,78.90
2018-12-15T06:08:46.531Z,78.90
2018-12-15T06:11:15.014Z,78.90
2018-12-15T06:13:43.492Z,78.90
2018-12-15T06:16:11.985Z,78.90
2018-12-15T06:18:40.635Z,78.90
2018-12-15T06:21:09.196Z,78.90
2018-12-15T06:23:37.645Z,78.90
2018-12-15T06:26:06.254Z,79.00
2018-12-15T06:28:34.745Z,78.90
2018-12-15T06:31:03.224Z,79.30
2018-12-15T06:33:31.726Z,79.00
2018-12-15T06:36:00.214Z,79.00
2018-12-15T06:38:28.677Z,79.00
2018-12-15T06:40:57.113Z,79.10
2018-12-15T06:43:25.725Z,79.00
2018-12-15T06:45:54.518Z,79.00
2018-12-15T06:48:22.953Z,78.90
2018-12-15T06:50:51.470Z,79.10
2018-12-15T06:53:19.934Z,79.20
2018-12-15T06:55:48.461Z,79.10
2018-12-15T06:58:16.936Z,79.10
2018-12-15T07:00:45.460Z,79.10
2018-12-15T07:03:13.933Z,79.00
2018-12-15T07:05:42.618Z,79.10
2018-12-15T07:08:11.100Z,79.10
2018-12-15T07:10:39.577Z,79.10
2018-12-15T07:13:08.027Z,79.10
2018-12-15T07:15:36.511Z,79.10
2018-12-15T07:18:04.958Z,79.10
2018-12-15T07:20:33.446Z,79.10
2018-12-15T07:23:01.920Z,79.10
2018-12-15T07:25:31.127Z,79.10
2018-12-15T07:27:59.616Z,79.10
2018-12-15T07:30:28.967Z,79.20
2018-12-15T07:32:57.462Z,79.20
2018-12-15T07:35:25.980Z,79.10
2018-12-15T07:37:54.432Z,79.20
2018-12-15T07:40:22.935Z,79.30
2018-12-15T07:42:51.398Z,79.30
2018-12-15T07:45:19.917Z,79.30
2018-12-15T07:47:48.435Z,79.30
2018-12-15T07:50:16.923Z,79.30
2018-12-15T07:52:45.411Z,79.20
2018-12-15T07:55:13.933Z,79.20
2018-12-15T07:57:42.424Z,79.30
2018-12-15T08:00:11.186Z,79.20
2018-12-15T08:02:39.624Z,79.20
2018-12-15T08:05:08.302Z,79.30
2018-12-15T08:07:36.935Z,79.30
2018-12-15T08:10:06.046Z,79.30
2018-12-15T08:12:39.365Z,79.30
2018-12-15T08:15:08.865Z,79.90
2018-12-15T08:17:37.365Z,79.40
2018-12-15T08:20:08.711Z,79.40
2018-12-15T08:22:37.219Z,79.30
2018-12-15T08:25:07.099Z,79.30
2018-12-15T08:27:35.958Z,79.30
2018-12-15T08:30:06.113Z,79.40
2018-12-15T08:32:35.352Z,80.10
2018-12-15T08:35:04.323Z,79.50
2018-12-15T08:37:32.877Z,79.50
2018-12-15T08:40:01.371Z,79.50
2018-12-15T08:42:29.909Z,79.50
2018-12-15T08:44:58.418Z,79.40
2018-12-15T08:47:26.868Z,79.50
2018-12-15T08:49:55.335Z,79.50
2018-12-15T08:52:23.802Z,79.50
2018-12-15T08:54:52.314Z,79.50
2018-12-15T08:57:26.083Z,79.50
2018-12-15T08:59:54.909Z,79.40
2018-12-15T09:02:23.536Z,79.40
2018-12-15T09:04:52.685Z,79.40
2018-12-15T09:07:25.211Z,79.50
2018-12-15T09:10:03.742Z,79.70
2018-12-15T09:12:33.444Z,79.60
2018-12-15T09:15:01.976Z,79.60
2018-12-15T09:17:30.479Z,79.60
2018-12-15T09:19:58.962Z,79.70
2018-12-15T09:22:27.480Z,79.60
2018-12-15T09:24:56.009Z,79.60
2018-12-15T09:27:24.538Z,79.60
2018-12-15T09:29:53.039Z,79.50
2018-12-15T09:32:21.510Z,79.50
2018-12-15T09:34:50.052Z,79.60
2018-12-15T09:37:18.536Z,80.30
2018-12-15T09:39:47.001Z,79.50
2018-12-15T09:42:15.473Z,79.50
2018-12-15T09:44:44.043Z,79.40
2018-12-15T09:47:12.733Z,79.60
2018-12-15T09:49:41.274Z,79.60
2018-12-15T09:52:09.729Z,79.50
2018-12-15T09:54:38.496Z,79.50
2018-12-15T09:57:07.065Z,79.50
2018-12-15T09:59:35.668Z,79.50
2018-12-15T10:02:04.428Z,79.50
2018-12-15T10:04:33.102Z,79.60
2018-12-15T10:07:01.563Z,80.30
2018-12-15T10:09:30.065Z,79.50
2018-12-15T10:11:58.646Z,79.50
2018-12-15T10:14:28.079Z,79.50
2018-12-15T10:16:56.583Z,79.40
2018-12-15T10:19:25.221Z,79.50
2018-12-15T10:21:53.781Z,79.50
2018-12-15T10:24:22.381Z,79.50
2018-12-15T10:26:51.011Z,79.50
2018-12-15T10:29:24.795Z,79.50
2018-12-15T10:31:58.460Z,79.60
2018-12-15T10:34:26.950Z,79.60
2018-12-15T10:36:55.394Z,79.50
2018-12-15T10:39:23.870Z,79.50
2018-12-15T10:41:52.339Z,79.50
2018-12-15T10:44:20.865Z,79.50
2018-12-15T10:46:49.331Z,79.50
2018-12-15T10:49:17.882Z,79.60
2018-12-15T10:51:46.458Z,79.60
2018-12-15T10:54:14.969Z,79.60
2018-12-15T10:56:43.553Z,79.50
2018-12-15T10:59:12.080Z,79.60
2018-12-15T11:01:40.690Z,79.60
2018-12-15T11:04:09.230Z,79.60
2018-12-15T11:06:37.708Z,79.60
2018-12-15T11:09:08.103Z,79.70
2018-12-15T11:11:36.672Z,79.70
2018-12-15T11:14:05.343Z,79.70
2018-12-15T11:16:33.863Z,79.60
2018-12-15T11:19:02.379Z,79.50
2018-12-15T11:21:30.928Z,79.50
2018-12-15T11:23:59.404Z,79.50
2018-12-15T11:26:27.943Z,79.60
2018-12-15T11:28:56.663Z,79.50
2018-12-15T11:31:25.203Z,80.10
2018-12-15T11:33:53.930Z,79.50
2018-12-15T11:36:22.437Z,79.40
2018-12-15T11:38:50.918Z,79.40
2018-12-15T11:41:19.418Z,79.40
2018-12-15T11:43:47.876Z,79.50
2018-12-15T11:46:16.378Z,79.40
2018-12-15T11:48:44.857Z,79.40
2018-12-15T11:51:13.396Z,79.90
2018-12-15T11:53:41.893Z,79.60
2018-12-15T11:56:10.423Z,79.20
2018-12-15T11:58:39.061Z,79.20
2018-12-15T12:01:07.600Z,79.30
2018-12-15T12:03:36.060Z,79.30
2018-12-15T12:06:04.726Z,79.40
2018-12-15T12:08:33.179Z,79.20
2018-12-15T12:11:01.693Z,79.00
2018-12-15T12:13:30.166Z,79.10
2018-12-15T12:15:58.706Z,79.00
2018-12-15T12:18:27.166Z,79.00
2018-12-15T12:20:55.659Z,79.00
2018-12-15T12:23:24.169Z,79.00
2018-12-15T12:25:52.699Z,79.00
2018-12-15T12:28:21.156Z,79.00
2018-12-15T12:30:49.611Z,79.00
2018-12-15T12:33:18.104Z,79.00
2018-12-15T12:35:46.678Z,78.80
2018-12-15T12:38:15.152Z,78.70
2018-12-15T12:40:43.631Z,78.60
2018-12-15T12:43:12.082Z,78.50
2018-12-15T12:45:40.522Z,78.40
2018-12-15T12:48:09.031Z,78.50
2018-12-15T12:50:37.483Z,78.50
2018-12-15T12:53:05.963Z,78.60
2018-12-15T12:55:34.434Z,78.50
2018-12-15T12:58:02.877Z,78.40
2018-12-15T13:00:31.325Z,78.60
2018-12-15T13:02:59.817Z,78.40
2018-12-15T13:05:28.245Z,78.30
2018-12-15T13:07:56.717Z,78.20
2018-12-15T13:10:25.261Z,78.20
2018-12-15T13:12:53.704Z,78.30
2018-12-15T13:15:22.212Z,78.20
2018-12-15T13:17:50.703Z,78.20
2018-12-15T13:20:19.424Z,78.10
2018-12-15T13:22:47.949Z,78.00
2018-12-15T13:25:16.486Z,78.00
2018-12-15T13:27:44.975Z,78.00
2018-12-15T13:30:13.629Z,77.90
2018-12-15T13:32:42.150Z,77.90
2018-12-15T13:35:10.635Z,77.80
2018-12-15T13:37:39.125Z,77.80
2018-12-15T13:40:08.571Z,77.80
2018-12-15T13:42:37.097Z,77.80
2018-12-15T13:45:05.960Z,77.80
2018-12-15T13:47:34.572Z,77.70
2018-12-15T13:50:03.187Z,77.70
2018-12-15T13:52:31.675Z,77.70
2018-12-15T13:55:00.233Z,77.70
2018-12-15T13:57:28.720Z,77.70
2018-12-15T13:59:57.288Z,77.70
2018-12-15T14:02:25.762Z,77.60
2018-12-15T14:04:54.308Z,77.70
2018-12-15T14:07:22.783Z,77.70
2018-12-15T14:09:51.263Z,77.60
2018-12-15T14:12:19.698Z,77.50
2018-12-15T14:14:48.172Z,77.30
2018-12-15T14:17:16.635Z,77.30
2018-12-15T14:19:45.133Z,77.20
2018-12-15T14:22:13.706Z,77.30
2018-12-15T14:24:42.193Z,77.30
2018-12-15T14:27:10.760Z,77.30
2018-12-15T14:29:39.280Z,77.20
2018-12-15T14:32:07.822Z,77.20
2018-12-15T14:34:36.369Z,77.20
2018-12-15T14:37:04.829Z,77.10
2018-12-15T14:39:33.309Z,77.10
2018-12-15T14:42:01.845Z,77.10
2018-12-15T14:44:30.334Z,77.20
2018-12-15T14:46:58.817Z,77.20
2018-12-15T14:49:27.357Z,77.20
2018-12-15T14:51:55.858Z,77.10
2018-12-15T14:54:24.376Z,77.00
2018-12-15T14:56:53.007Z,77.00
2018-12-15T14:59:21.521Z,77.10
2018-12-15T15:01:49.993Z,77.00
2018-12-15T15:04:18.549Z,77.00
2018-12-15T15:06:47.039Z,77.00
2018-12-15T15:09:15.550Z,77.00
2018-12-15T15:11:44.065Z,76.90
2018-12-15T15:14:12.506Z,76.90
2018-12-15T15:16:40.981Z,76.90
2018-12-15T15:19:09.510Z,76.90
2018-12-15T15:21:37.983Z,76.80
2018-12-15T15:24:06.462Z,76.80
2018-12-15T15:26:35.593Z,76.70
2018-12-15T15:29:04.323Z,76.70
2018-12-15T15:31:32.775Z,76.80
2018-12-15T15:34:01.248Z,76.80
2018-12-15T15:36:29.815Z,76.80
2018-12-15T15:38:58.340Z,76.60
2018-12-15T15:41:26.812Z,76.70
2018-12-15T15:43:55.300Z,76.80
2018-12-15T15:46:23.809Z,76.80
2018-12-15T15:48:52.299Z,76.70
2018-12-15T15:51:20.762Z,76.70
2018-12-15T15:53:49.244Z,76.60
2018-12-15T15:56:17.724Z,76.60
2018-12-15T15:58:46.234Z,76.60
2018-12-15T16:01:14.827Z,76.60
2018-12-15T16:03:43.342Z,76.60
2018-12-15T16:06:11.912Z,76.60
2018-12-15T16:08:40.388Z,76.60
2018-12-15T16:11:08.932Z,76.50
2018-12-15T16:13:37.468Z,76.50
2018-12-15T16:16:34.475Z,76.50
2018-12-15T16:19:03.176Z,76.50
2018-12-15T16:21:31.711Z,76.50
2018-12-15T16:24:00.206Z,77.30
2018-12-15T16:26:28.830Z,76.50
2018-12-15T16:28:57.276Z,76.50
2018-12-15T16:31:25.788Z,76.60
2018-12-15T16:33:54.264Z,76.60
2018-12-15T16:36:22.859Z,76.50
2018-12-15T16:38:51.325Z,76.50
2018-12-15T16:41:19.831Z,76.60
2018-12-15T16:43:48.316Z,76.50
2018-12-15T16:46:16.833Z,76.50
2018-12-15T16:48:45.299Z,77.20
2018-12-15T16:51:13.826Z,76.60
2018-12-15T16:53:42.302Z,76.50
2018-12-15T16:56:10.802Z,76.50
2018-12-15T16:58:39.281Z,76.50
2018-12-15T17:01:07.793Z,76.60
2018-12-15T17:03:36.245Z,76.50
2018-12-15T17:06:04.738Z,76.50
2018-12-15T17:08:33.224Z,76.60
2018-12-15T17:11:01.782Z,76.60
2018-12-15T17:13:30.337Z,76.70
2018-12-15T17:15:58.842Z,76.70
2018-12-15T17:18:27.357Z,76.70
2018-12-15T17:20:56.842Z,76.70
2018-12-15T17:23:25.560Z,76.70
2018-12-15T17:25:54.207Z,76.70
2018-12-15T17:28:22.652Z,76.70
2018-12-15T17:30:51.164Z,76.60
2018-12-15T17:33:19.623Z,76.60
2018-12-15T17:35:48.104Z,76.60
2018-12-15T17:38:16.717Z,76.70
2018-12-15T17:40:45.390Z,76.70
2018-12-15T17:43:13.862Z,76.80
2018-12-15T17:45:42.353Z,76.80
2018-12-15T17:48:10.804Z,76.70
2018-12-15T17:50:39.429Z,76.70
2018-12-15T17:53:07.979Z,76.60
2018-12-15T17:55:36.471Z,76.40
2018-12-15T17:58:05.112Z,76.00
2018-12-15T18:00:33.661Z,76.50
2018-12-15T18:03:02.156Z,76.50
2018-12-15T18:05:30.685Z,76.50
2018-12-15T18:07:59.173Z,76.40
2018-12-15T18:10:27.731Z,76.40
2018-12-15T18:12:56.185Z,76.40
2018-12-15T18:15:24.724Z,76.50
2018-12-15T18:17:53.284Z,76.50
2018-12-15T18:20:21.767Z,76.70
2018-12-15T18:22:50.320Z,76.70
2018-12-15T18:25:18.794Z,76.70
2018-12-15T18:27:48.438Z,76.70
2018-12-15T18:30:17.137Z,76.70
2018-12-15T18:32:45.670Z,76.70
2018-12-15T18:35:14.209Z,76.60
2018-12-15T18:37:42.675Z,76.70
2018-12-15T18:40:11.123Z,76.70
2018-12-15T18:42:39.621Z,76.70
2018-12-15T18:45:08.328Z,76.50
2018-12-15T18:47:36.866Z,76.60
2018-12-15T18:50:06.981Z,76.50
2018-12-15T18:52:35.489Z,76.50
2018-12-15T18:55:04.230Z,76.50
2018-12-15T18:57:32.838Z,76.50
2018-12-15T19:00:01.309Z,76.50
2018-12-15T19:02:29.875Z,76.50
2018-12-15T19:04:58.305Z,76.50
2018-12-15T19:07:26.814Z,76.40
2018-12-15T19:09:55.264Z,76.40
2018-12-15T19:12:23.748Z,76.50
2018-12-15T19:17:18.075Z,76.60
2018-12-15T19:19:46.581Z,76.70
2018-12-15T19:22:15.088Z,76.70
2018-12-15T19:24:43.558Z,76.70
2018-12-15T19:27:12.109Z,76.80
2018-12-15T19:29:40.594Z,76.80
2018-12-15T19:32:09.063Z,76.80
2018-12-15T19:34:37.906Z,76.80
2018-12-15T19:37:06.414Z,76.80
2018-12-15T19:39:34.915Z,76.80
2018-12-15T19:42:03.437Z,76.90
2018-12-15T19:44:31.900Z,76.80
2018-12-15T19:47:00.384Z,76.80
2018-12-15T19:49:28.839Z,76.80
2018-12-15T19:51:57.351Z,76.80
2018-12-15T19:54:25.838Z,76.70
2018-12-15T19:56:54.351Z,76.70
2018-12-15T19:59:22.813Z,76.70
2018-12-15T20:01:51.393Z,76.70
2018-12-15T20:04:19.863Z,76.90
2018-12-15T20:06:48.344Z,76.70
2018-12-15T20:09:16.929Z,76.80
2018-12-15T20:11:45.471Z,76.60
2018-12-15T20:14:13.900Z,76.60
2018-12-15T20:16:42.388Z,76.70
2018-12-15T20:19:10.892Z,76.70
2018-12-15T20:21:39.389Z,76.60
2018-12-15T20:24:07.838Z,77.20
2018-12-15T20:26:36.411Z,76.70
2018-12-15T20:29:04.886Z,76.60
2018-12-15T20:31:33.371Z,76.60
2018-12-15T20:34:01.903Z,76.80
2018-12-15T20:36:30.563Z,76.80
2018-12-15T20:38:59.138Z,76.90
2018-12-15T20:41:27.596Z,76.70
2018-12-15T20:43:56.020Z,76.70
2018-12-15T20:46:24.530Z,76.70
2018-12-15T20:48:53.225Z,76.70
2018-12-15T20:51:21.867Z,76.70
2018-12-15T20:53:50.378Z,76.70
2018-12-15T20:56:18.846Z,76.80
2018-12-15T20:58:47.321Z,76.80
2018-12-15T21:01:15.747Z,76.80
2018-12-15T21:03:44.256Z,76.70
2018-12-15T21:06:12.738Z,76.60
2018-12-15T21:08:41.190Z,76.70
2018-12-15T21:11:09.762Z,76.70
2018-12-15T21:13:38.291Z,76.60
2018-12-15T21:16:06.792Z,76.60
2018-12-15T21:18:35.267Z,76.60
2018-12-15T21:21:04.338Z,76.60
2018-12-15T21:23:32.804Z,76.50
2018-12-15T21:26:01.275Z,76.50
2018-12-15T21:28:29.898Z,76.40
2018-12-15T21:30:58.473Z,76.40
2018-12-15T21:33:26.954Z,76.40
2018-12-15T21:35:55.408Z,76.40
2018-12-15T21:38:23.900Z,76.40
2018-12-15T21:40:52.380Z,76.40
2018-12-15T21:43:20.959Z,76.40
2018-12-15T21:45:49.427Z,76.30
2018-12-15T21:48:17.924Z,76.40
2018-12-15T21:50:46.409Z,76.20
2018-12-15T21:53:14.884Z,76.20
2018-12-15T21:55:43.387Z,76.30
2018-12-15T21:58:11.921Z,76.30
2018-12-15T22:00:40.407Z,76.10
2018-12-15T22:03:08.970Z,76.10
2018-12-15T22:05:38.323Z,76.00
2018-12-15T22:08:06.829Z,76.00
2018-12-15T22:10:36.127Z,75.90
2018-12-15T22:13:04.897Z,75.90
2018-12-15T22:15:33.468Z,75.80
2018-12-15T22:18:01.952Z,75.80
2018-12-15T22:20:30.658Z,75.70
2018-12-15T22:22:59.134Z,75.80
2018-12-15T22:25:27.772Z,75.80
2018-12-15T22:27:56.280Z,75.70
2018-12-15T22:30:24.736Z,75.80
2018-12-15T22:32:53.287Z,75.70
2018-12-15T22:35:21.869Z,75.80
2018-12-15T22:37:50.321Z,75.90
2018-12-15T22:40:18.834Z,75.80
2018-12-15T22:42:47.370Z,75.90
2018-12-15T22:45:15.887Z,76.00
2018-12-15T22:47:44.449Z,76.00
2018-12-15T22:50:12.953Z,76.20
2018-12-15T22:52:41.498Z,76.20
2018-12-15T22:55:10.060Z,76.10
2018-12-15T22:57:38.572Z,76.20
2018-12-15T23:00:09.868Z,76.10
2018-12-15T23:02:38.407Z,76.00
2018-12-15T23:05:07.162Z,75.90
2018-12-15T23:07:35.696Z,75.90
2018-12-15T23:10:05.193Z,75.90
2018-12-15T23:12:33.813Z,75.90
2018-12-15T23:15:02.328Z,75.80
2018-12-15T23:17:30.853Z,75.80
2018-12-15T23:19:59.304Z,75.90
2018-12-15T23:22:28.112Z,75.90
2018-12-15T23:24:56.649Z,76.00
2018-12-15T23:27:25.400Z,76.10
2018-12-15T23:29:53.949Z,76.40
2018-12-15T23:32:22.644Z,76.50
2018-12-15T23:34:51.349Z,76.50
2018-12-15T23:37:19.959Z,76.50
2018-12-15T23:39:48.631Z,76.50
2018-12-15T23:42:17.219Z,76.60
2018-12-15T23:44:45.887Z,76.60
2018-12-15T23:47:14.545Z,76.60
2018-12-15T23:49:43.101Z,76.60
2018-12-15T23:52:11.891Z,76.60
2018-12-15T23:54:40.478Z,75.90
2018-12-15T23:57:10.347Z,76.50
2018-12-15T23:59:39.052Z,76.50
